Time,TemperatureF,DewpointF,PressureIn,WindDirection,WindDirectionDegrees,WindSpeedMPH,WindSpeedGustMPH,Humidity,HourlyPrecipIn,Conditions,Clouds,dailyrainin,SoftwareType,DateUTC
2013-02-19 00:00:00,38.1,11.6,30.00,North,0,0.0,0.0,33,0.00,,---,0.00,VWS V14.01,2013-02-18 23:00:00,
2013-02-19 00:15:00,37.9,11.4,30.00,North,0,0.0,0.0,33,0.00,,---,0.00,VWS V14.01,2013-02-18 23:15:00,
2013-02-19 00:30:00,37.4,10.9,30.00,North,0,0.0,0.0,33,0.00,,---,0.00,VWS V14.01,2013-02-18 23:30:00,
2013-02-19 00:45:00,37.4,10.9,30.00,North,0,0.0,0.0,33,0.00,,---,0.00,VWS V14.01,2013-02-18 23:45:00,
2013-02-19 01:00:00,37.4,10.9,30.00,North,0,0.0,0.0,33,0.00,,---,0.00,VWS V14.01,2013-02-19 00:00:00,
2013-02-19 01:15:00,37.2,10.8,30.00,North,0,0.0,0.0,33,0.00,,---,0.00,VWS V14.01,2013-02-19 00:15:00,
2013-02-19 01:30:00,37.0,10.6,30.00,North,0,0.0,0.0,33,0.00,,---,0.00,VWS V14.01,2013-02-19 00:30:00,
2013-02-19 01:45:00,37.0,10.6,30.00,North,0,0.0,0.0,33,0.00,,---,0.00,VWS V14.01,2013-02-19 00:45:00,
2013-02-19 02:00:00,36.9,10.5,30.00,North,0,0.0,0.0,33,0.00,,---,0.00,VWS V14.01,2013-02-19 01:00:00,
2013-02-19 02:15:00,36.7,10.3,30.00,North,0,0.0,0.0,33,0.00,,---,0.00,VWS V14.01,2013-02-19 01:15:00,
2013-02-19 02:30:00,36.7,10.3,30.00,North,0,0.0,0.0,33,0.00,,---,0.00,VWS V14.01,2013-02-19 01:30:00,
2013-02-19 02:45:00,36.5,10.1,29.97,North,0,0.0,0.0,33,0.00,,---,0.00,VWS V14.01,2013-02-19 01:45:00,
2013-02-19 03:00:00,36.3,10.0,29.97,North,0,0.0,0.0,33,0.00,,---,0.00,VWS V14.01,2013-02-19 02:00:00,
2013-02-19 03:15:00,36.1,9.8,29.97,North,0,0.0,0.0,33,0.00,,---,0.00,VWS V14.01,2013-02-19 02:15:00,
2013-02-19 03:30:00,36.1,9.8,29.97,North,0,0.0,0.0,33,0.00,,---,0.00,VWS V14.01,2013-02-19 02:30:00,
2013-02-19 03:45:00,35.8,10.2,29.97,North,0,0.0,0.0,34,0.00,,---,0.00,VWS V14.01,2013-02-19 02:45:00,
2013-02-19 04:00:00,36.1,10.5,29.97,North,0,0.0,0.0,34,0.00,,---,0.00,VWS V14.01,2013-02-19 03:00:00,
2013-02-19 04:15:00,36.1,9.8,29.97,North,0,0.0,0.0,33,0.00,,---,0.00,VWS V14.01,2013-02-19 03:15:00,
2013-02-19 04:30:00,35.8,9.5,29.97,North,0,0.0,0.0,33,0.00,,---,0.00,VWS V14.01,2013-02-19 03:30:00,
2013-02-19 04:45:00,34.5,8.4,29.97,North,0,0.0,0.0,33,0.00,,---,0.00,VWS V14.01,2013-02-19 03:45:00,
2013-02-19 05:00:00,34.0,8.6,29.97,North,0,0.0,0.0,34,0.00,,---,0.00,VWS V14.01,2013-02-19 04:00:00,
2013-02-19 05:15:00,33.4,8.7,29.97,North,0,0.0,0.0,35,0.00,,---,0.00,VWS V14.01,2013-02-19 04:15:00,
2013-02-19 05:30:00,32.5,9.2,29.97,North,0,0.0,0.0,37,0.00,,---,0.00,VWS V14.01,2013-02-19 04:30:00,
2013-02-19 05:45:00,31.6,9.5,29.97,North,0,0.0,0.0,39,0.00,,---,0.00,VWS V14.01,2013-02-19 04:45:00,
2013-02-19 06:00:00,31.1,9.6,29.97,North,0,0.0,0.0,40,0.00,,---,0.00,VWS V14.01,2013-02-19 05:00:00,
2013-02-19 06:15:00,30.9,10.0,29.97,North,0,0.0,0.0,41,0.00,,---,0.00,VWS V14.01,2013-02-19 05:15:00,
2013-02-19 06:30:00,29.5,8.7,29.97,North,0,0.0,0.0,41,0.00,,---,0.00,VWS V14.01,2013-02-19 05:30:00,
2013-02-19 06:45:00,28.6,7.9,29.97,North,0,0.0,0.0,41,0.00,,---,0.00,VWS V14.01,2013-02-19 05:45:00,
2013-02-19 07:00:00,28.8,8.0,29.97,North,0,0.0,0.0,41,0.00,,---,0.00,VWS V14.01,2013-02-19 06:00:00,
2013-02-19 07:15:00,28.8,8.0,29.97,North,0,0.0,0.0,41,0.00,,---,0.00,VWS V14.01,2013-02-19 06:15:00,
2013-02-19 07:30:00,28.4,7.7,29.97,North,0,0.0,0.0,41,0.00,,---,0.00,VWS V14.01,2013-02-19 06:30:00,
2013-02-19 07:45:00,28.8,8.0,29.97,North,0,0.0,0.0,41,0.00,,---,0.00,VWS V14.01,2013-02-19 06:45:00,
2013-02-19 08:00:00,29.8,9.6,29.97,North,0,0.0,0.0,42,0.00,,---,0.00,VWS V14.01,2013-02-19 07:00:00,
2013-02-19 08:15:00,31.3,10.9,29.97,North,0,0.0,0.0,42,0.00,,---,0.00,VWS V14.01,2013-02-19 07:15:00,
2013-02-19 08:30:00,33.8,13.7,29.97,North,0,0.0,0.0,43,0.00,,---,0.00,VWS V14.01,2013-02-19 07:30:00,
2013-02-19 08:45:00,37.6,16.6,29.97,North,0,0.0,0.0,42,0.00,,---,0.00,VWS V14.01,2013-02-19 07:45:00,
2013-02-19 09:00:00,40.1,14.7,29.97,North,0,0.0,0.0,35,0.00,,---,0.00,VWS V14.01,2013-02-19 08:00:00,
2013-02-19 09:15:00,41.9,14.2,29.97,North,0,0.0,0.0,32,0.00,,---,0.00,VWS V14.01,2013-02-19 08:15:00,
2013-02-19 09:30:00,43.2,13.1,29.97,North,0,0.0,0.0,29,0.00,,---,0.00,VWS V14.01,2013-02-19 08:30:00,
2013-02-19 09:45:00,44.2,14.0,29.97,North,0,0.0,0.0,29,0.00,,---,0.00,VWS V14.01,2013-02-19 08:45:00,
2013-02-19 10:00:00,45.1,14.0,29.97,North,0,0.0,0.0,28,0.00,,---,0.00,VWS V14.01,2013-02-19 09:00:00,
2013-02-19 10:15:00,45.7,14.5,29.97,North,0,0.0,0.0,28,0.00,,---,0.00,VWS V14.01,2013-02-19 09:15:00,
2013-02-19 10:30:00,46.0,14.8,29.97,North,0,0.0,0.0,28,0.00,,---,0.00,VWS V14.01,2013-02-19 09:30:00,
2013-02-19 10:45:00,46.4,14.2,29.97,North,0,0.0,0.0,27,0.00,,---,0.00,VWS V14.01,2013-02-19 09:45:00,
2013-02-19 11:00:00,47.1,14.9,29.97,North,0,0.0,0.0,27,0.00,,---,0.00,VWS V14.01,2013-02-19 10:00:00,
2013-02-19 11:15:00,48.4,15.1,29.97,North,0,0.0,0.0,26,0.00,,---,0.00,VWS V14.01,2013-02-19 10:15:00,
2013-02-19 11:30:00,49.3,15.9,29.97,North,0,0.0,0.0,26,0.00,,---,0.00,VWS V14.01,2013-02-19 10:30:00,
2013-02-19 11:45:00,49.8,16.3,29.94,North,0,0.0,0.0,26,0.00,,---,0.00,VWS V14.01,2013-02-19 10:45:00,
2013-02-19 12:00:00,50.2,14.8,29.94,North,0,0.0,0.0,24,0.00,,---,0.00,VWS V14.01,2013-02-19 11:00:00,
2013-02-19 12:15:00,50.7,15.3,29.94,North,0,0.0,0.0,24,0.00,,---,0.00,VWS V14.01,2013-02-19 11:15:00,
2013-02-19 12:30:00,50.4,14.9,29.94,North,0,0.0,0.0,24,0.00,,---,0.00,VWS V14.01,2013-02-19 11:30:00,
2013-02-19 12:45:00,50.9,15.4,29.94,North,0,0.0,0.0,24,0.00,,---,0.00,VWS V14.01,2013-02-19 11:45:00,
2013-02-19 13:00:00,51.6,16.0,29.94,North,0,0.0,0.0,24,0.00,,---,0.00,VWS V14.01,2013-02-19 12:00:00,
2013-02-19 13:15:00,52.0,15.4,29.94,North,0,0.0,0.0,23,0.00,,---,0.00,VWS V14.01,2013-02-19 12:15:00,
2013-02-19 13:30:00,51.8,15.2,29.94,North,0,0.0,0.0,23,0.00,,---,0.00,VWS V14.01,2013-02-19 12:30:00,
2013-02-19 13:45:00,51.3,15.7,29.91,North,0,0.0,0.0,24,0.00,,---,0.00,VWS V14.01,2013-02-19 12:45:00,
2013-02-19 14:00:00,51.3,15.7,29.91,North,0,0.0,0.0,24,0.00,,---,0.00,VWS V14.01,2013-02-19 13:00:00,
2013-02-19 14:15:00,51.3,15.7,29.91,North,0,0.0,0.0,24,0.00,,---,0.00,VWS V14.01,2013-02-19 13:15:00,
2013-02-19 14:30:00,51.1,15.6,29.91,North,0,0.0,0.0,24,0.00,,---,0.00,VWS V14.01,2013-02-19 13:30:00,
2013-02-19 14:45:00,50.5,15.1,29.88,North,0,0.0,0.0,24,0.00,,---,0.00,VWS V14.01,2013-02-19 13:45:00,
2013-02-19 15:00:00,50.2,14.8,29.88,North,0,0.0,0.0,24,0.00,,---,0.00,VWS V14.01,2013-02-19 14:00:00,
2013-02-19 15:15:00,49.5,14.2,29.88,North,0,0.0,0.0,24,0.00,,---,0.00,VWS V14.01,2013-02-19 14:15:00,
2013-02-19 15:30:00,49.3,14.0,29.88,North,0,0.0,0.0,24,0.00,,---,0.00,VWS V14.01,2013-02-19 14:30:00,
2013-02-19 15:45:00,48.7,13.6,29.88,North,0,0.0,0.0,24,0.00,,---,0.00,VWS V14.01,2013-02-19 14:45:00,
2013-02-19 15:59:00,47.8,10.9,29.88,North,0,0.0,0.0,22,0.00,,---,0.00,VWS V14.01,2013-02-19 14:59:00,
2013-02-19 16:15:00,46.8,9.9,29.88,North,0,0.0,0.0,22,0.00,,---,0.00,VWS V14.01,2013-02-19 15:15:00,
2013-02-19 16:30:00,46.2,9.5,29.85,North,0,0.0,0.0,22,0.00,,---,0.00,VWS V14.01,2013-02-19 15:30:00,
2013-02-19 16:44:00,46.0,9.3,29.85,North,0,0.0,0.0,22,0.00,,---,0.00,VWS V14.01,2013-02-19 15:44:00,
2013-02-19 17:00:00,45.1,8.6,29.85,North,0,0.0,0.0,22,0.00,,---,0.00,VWS V14.01,2013-02-19 16:00:00,
2013-02-19 17:15:00,44.4,8.9,29.85,North,0,0.0,0.0,23,0.00,,---,0.00,VWS V14.01,2013-02-19 16:15:00,
2013-02-19 17:30:00,44.1,8.6,29.85,North,0,0.0,0.0,23,0.00,,---,0.00,VWS V14.01,2013-02-19 16:30:00,
2013-02-19 17:44:00,43.5,8.2,29.85,North,0,0.0,0.0,23,0.00,,---,0.00,VWS V14.01,2013-02-19 16:44:00,
2013-02-19 18:00:00,42.4,7.3,29.85,North,0,0.0,0.0,23,0.00,,---,0.00,VWS V14.01,2013-02-19 17:00:00,
2013-02-19 18:15:00,41.0,8.8,29.85,North,0,0.0,0.0,26,0.00,,---,0.00,VWS V14.01,2013-02-19 17:15:00,
2013-02-19 18:30:00,39.9,7.8,29.85,North,0,0.0,0.0,26,0.00,,---,0.00,VWS V14.01,2013-02-19 17:30:00,
2013-02-19 18:45:00,38.8,6.9,29.85,North,0,0.0,0.0,26,0.00,,---,0.00,VWS V14.01,2013-02-19 17:45:00,
2013-02-19 18:59:00,38.1,8.7,29.85,North,0,0.0,0.0,29,0.00,,---,0.00,VWS V14.01,2013-02-19 17:59:00,
2013-02-19 19:15:00,37.4,8.1,29.85,North,0,0.0,0.0,29,0.00,,---,0.00,VWS V14.01,2013-02-19 18:15:00,
2013-02-19 19:30:00,37.0,8.5,29.85,North,0,0.0,0.0,30,0.00,,---,0.00,VWS V14.01,2013-02-19 18:30:00,
2013-02-19 19:45:00,36.7,8.2,29.85,North,0,0.0,0.0,30,0.00,,---,0.00,VWS V14.01,2013-02-19 18:45:00,
2013-02-19 20:00:00,37.0,8.5,29.85,North,0,0.0,0.0,30,0.00,,---,0.00,VWS V14.01,2013-02-19 19:00:00,
2013-02-19 20:15:00,37.9,8.5,29.85,North,0,0.0,0.0,29,0.00,,---,0.00,VWS V14.01,2013-02-19 19:15:00,
2013-02-19 20:30:00,38.3,8.8,29.85,North,0,0.0,0.0,29,0.00,,---,0.00,VWS V14.01,2013-02-19 19:30:00,
2013-02-19 20:45:00,38.5,9.0,29.85,North,0,0.0,0.0,29,0.00,,---,0.00,VWS V14.01,2013-02-19 19:45:00,
2013-02-19 21:00:00,38.7,9.2,29.85,North,0,0.0,0.0,29,0.00,,---,0.00,VWS V14.01,2013-02-19 20:00:00,
2013-02-19 21:15:00,38.8,9.3,29.85,North,0,0.0,0.0,29,0.00,,---,0.00,VWS V14.01,2013-02-19 20:15:00,
2013-02-19 21:30:00,39.0,9.5,29.85,North,0,0.0,0.0,29,0.00,,---,0.00,VWS V14.01,2013-02-19 20:30:00,
2013-02-19 21:45:00,39.0,9.5,29.85,North,0,0.0,0.0,29,0.00,,---,0.00,VWS V14.01,2013-02-19 20:45:00,
2013-02-19 22:00:00,38.7,9.2,29.85,North,0,0.0,0.0,29,0.00,,---,0.00,VWS V14.01,2013-02-19 21:00:00,
2013-02-19 22:15:00,38.1,8.7,29.85,North,0,0.0,0.0,29,0.00,,---,0.00,VWS V14.01,2013-02-19 21:15:00,
2013-02-19 22:30:00,37.9,8.5,29.85,North,0,0.0,0.0,29,0.00,,---,0.00,VWS V14.01,2013-02-19 21:30:00,
2013-02-19 22:44:00,37.4,8.1,29.85,North,0,0.0,0.0,29,0.00,,---,0.00,VWS V14.01,2013-02-19 21:44:00,
2013-02-19 22:59:00,36.9,8.3,29.85,North,0,0.0,0.0,30,0.00,,---,0.00,VWS V14.01,2013-02-19 21:59:00,
2013-02-19 23:15:00,36.5,8.0,29.85,North,0,0.0,0.0,30,0.00,,---,0.00,VWS V14.01,2013-02-19 22:15:00,
2013-02-19 23:30:00,35.8,8.1,29.85,North,0,0.0,0.0,31,0.00,,---,0.00,VWS V14.01,2013-02-19 22:30:00,
2013-02-19 23:44:00,35.8,8.8,29.85,North,0,0.0,0.0,32,0.00,,---,0.00,VWS V14.01,2013-02-19 22:44:00,